createdAt,value
2023-03-16T00:02:13.059Z,57.42
2023-03-16T00:04:40.076Z,57.29
2023-03-16T00:07:09.318Z,56.98
2023-03-16T00:09:40.800Z,56.11
2023-03-16T00:12:16.360Z,53.92
2023-03-16T00:14:44.741Z,54.80
2023-03-16T00:17:20.203Z,56.40
2023-03-16T00:19:47.011Z,57.86
2023-03-16T00:22:15.892Z,57.60
2023-03-16T00:24:46.071Z,57.54
2023-03-16T00:27:14.835Z,61.10
2023-03-16T00:29:47.279Z,63.80
2023-03-16T00:32:19.480Z,65.45
2023-03-16T00:34:47.815Z,65.05
2023-03-16T00:37:17.049Z,63.63
2023-03-16T00:39:44.944Z,63.14
2023-03-16T00:42:15.018Z,63.38
2023-03-16T00:44:41.860Z,61.87
2023-03-16T00:47:08.942Z,60.26
2023-03-16T00:49:36.617Z,60.71
2023-03-16T00:52:07.470Z,60.99
2023-03-16T00:54:35.055Z,60.27
2023-03-16T00:57:02.548Z,61.78
2023-03-16T00:59:30.449Z,60.80
2023-03-16T01:01:58.285Z,58.46
2023-03-16T01:04:25.928Z,61.09
2023-03-16T01:06:52.861Z,60.79
2023-03-16T01:09:19.581Z,60.77
2023-03-16T01:11:48.093Z,60.47
2023-03-16T01:14:14.821Z,59.28
2023-03-16T01:16:41.681Z,56.19
2023-03-16T01:19:08.397Z,57.21
2023-03-16T01:21:38.197Z,58.06
2023-03-16T01:24:05.395Z,56.66
2023-03-16T01:26:32.375Z,56.07
2023-03-16T01:29:01.260Z,56.10
2023-03-16T01:31:31.899Z,55.27
2023-03-16T01:34:00.985Z,55.70
2023-03-16T01:36:29.806Z,54.58
2023-03-16T01:39:01.085Z,55.54
2023-03-16T01:41:33.310Z,56.73
2023-03-16T01:44:00.367Z,55.56
2023-03-16T01:46:29.755Z,54.45
2023-03-16T01:49:03.041Z,56.11
2023-03-16T01:51:44.048Z,56.19
2023-03-16T01:54:25.921Z,56.95
2023-03-16T01:57:08.457Z,59.07
2023-03-16T01:59:52.932Z,59.62
2023-03-16T02:02:23.238Z,63.18
2023-03-16T02:05:14.080Z,62.24
2023-03-16T02:07:46.458Z,61.80
2023-03-16T02:10:15.378Z,61.75
2023-03-16T02:12:43.345Z,62.63
2023-03-16T02:15:13.931Z,62.91
2023-03-16T02:17:43.926Z,61.98
2023-03-16T02:20:31.292Z,60.71
2023-03-16T02:22:58.457Z,58.79
2023-03-16T02:25:35.315Z,60.14
2023-03-16T02:28:22.863Z,62.60
2023-03-16T02:30:50.111Z,61.41
2023-03-16T02:33:18.554Z,62.49
2023-03-16T02:35:45.294Z,64.63
2023-03-16T02:38:12.003Z,65.29
2023-03-16T02:40:54.339Z,66.00
2023-03-16T02:43:25.188Z,65.18
2023-03-16T02:46:05.391Z,61.72
2023-03-16T02:49:03.093Z,62.50
2023-03-16T02:51:32.365Z,60.41
2023-03-16T02:53:59.234Z,60.02
2023-03-16T02:56:27.895Z,59.48
2023-03-16T02:58:57.421Z,58.68
2023-03-16T03:01:25.298Z,60.13
2023-03-16T03:03:52.073Z,63.37
2023-03-16T03:06:18.856Z,65.83
2023-03-16T03:08:45.644Z,65.86
2023-03-16T03:11:13.129Z,63.26
2023-03-16T03:13:40.066Z,63.00
2023-03-16T03:16:13.401Z,62.10
2023-03-16T03:18:41.273Z,59.87
2023-03-16T03:21:08.390Z,59.72
2023-03-16T03:23:35.551Z,60.39
2023-03-16T03:26:03.035Z,59.05
2023-03-16T03:28:34.221Z,58.97
2023-03-16T03:31:01.810Z,59.64
2023-03-16T03:33:29.139Z,59.49
2023-03-16T03:35:58.042Z,61.25
2023-03-16T03:38:26.681Z,61.64
2023-03-16T03:40:59.543Z,59.68
2023-03-16T03:43:31.355Z,58.39
2023-03-16T03:46:00.846Z,57.00
2023-03-16T03:48:28.243Z,59.67
2023-03-16T03:50:56.545Z,57.17
2023-03-16T03:53:35.260Z,56.78
2023-03-16T03:56:14.988Z,57.28
2023-03-16T03:58:41.735Z,56.98
2023-03-16T04:01:09.182Z,55.64
2023-03-16T04:03:36.253Z,55.97
2023-03-16T04:06:07.621Z,56.66
2023-03-16T04:08:35.663Z,55.57
2023-03-16T04:11:03.359Z,55.06
2023-03-16T04:13:30.128Z,56.25
2023-03-16T04:15:58.378Z,56.80
2023-03-16T04:18:29.229Z,57.77
2023-03-16T04:20:56.108Z,57.34
2023-03-16T04:23:26.570Z,58.36
2023-03-16T04:25:54.845Z,56.86
2023-03-16T04:28:22.442Z,56.82
2023-03-16T04:30:54.654Z,56.41
2023-03-16T04:33:32.220Z,56.98
2023-03-16T04:35:59.584Z,55.53
2023-03-16T04:38:27.070Z,55.75
2023-03-16T04:40:56.663Z,55.03
2023-03-16T04:43:27.634Z,54.87
2023-03-16T04:45:58.918Z,53.23
2023-03-16T04:50:57.299Z,56.25
2023-03-16T04:53:26.786Z,55.79
2023-03-16T04:55:59.642Z,56.81
2023-03-16T04:58:26.636Z,54.54
2023-03-16T05:00:58.207Z,56.24
2023-03-16T05:03:29.549Z,54.84
2023-03-16T05:05:56.327Z,56.92
2023-03-16T05:08:24.575Z,59.75
2023-03-16T05:10:57.469Z,57.18
2023-03-16T05:13:25.316Z,57.15
2023-03-16T05:15:56.203Z,56.41
2023-03-16T05:18:28.120Z,54.74
2023-03-16T05:20:56.189Z,55.19
2023-03-16T05:23:25.478Z,55.74
2023-03-16T05:26:01.199Z,55.41
2023-03-16T05:28:31.150Z,55.83
2023-03-16T05:31:03.975Z,55.67
2023-03-16T05:33:37.799Z,55.31
2023-03-16T05:36:08.779Z,55.71
2023-03-16T05:38:39.214Z,54.96
2023-03-16T05:41:09.226Z,54.25
2023-03-16T05:44:02.552Z,54.88
2023-03-16T05:46:39.217Z,56.13
2023-03-16T05:49:07.817Z,56.66
2023-03-16T05:51:34.638Z,56.97
2023-03-16T05:54:05.732Z,56.79
2023-03-16T05:56:38.760Z,56.84
2023-03-16T05:59:05.575Z,55.30
2023-03-16T06:01:34.084Z,55.27
2023-03-16T06:04:03.327Z,56.36
2023-03-16T06:06:33.738Z,57.49
2023-03-16T06:09:07.160Z,58.00
2023-03-16T06:11:33.976Z,56.94
2023-03-16T06:14:01.268Z,57.70
2023-03-16T06:16:28.273Z,57.77
2023-03-16T06:18:58.501Z,58.49
2023-03-16T06:21:26.885Z,59.37
2023-03-16T06:23:55.971Z,57.07
2023-03-16T06:26:22.844Z,56.21
2023-03-16T06:28:50.084Z,56.03
2023-03-16T06:31:16.829Z,57.66
2023-03-16T06:33:45.541Z,59.23
2023-03-16T06:36:12.523Z,61.10
2023-03-16T06:38:43.889Z,62.61
2023-03-16T06:41:26.120Z,63.10
2023-03-16T06:43:53.089Z,59.42
2023-03-16T06:46:19.913Z,58.61
2023-03-16T06:48:47.492Z,58.95
2023-03-16T06:51:16.770Z,58.73
2023-03-16T06:53:45.187Z,59.27
2023-03-16T06:56:12.514Z,60.02
2023-03-16T06:58:41.828Z,60.62
2023-03-16T07:01:08.651Z,60.47
2023-03-16T07:03:35.411Z,61.38
2023-03-16T07:06:09.571Z,61.58
2023-03-16T07:08:36.393Z,61.50
2023-03-16T07:11:03.471Z,61.44
2023-03-16T07:13:30.506Z,61.11
2023-03-16T07:15:57.306Z,60.74
2023-03-16T07:18:26.191Z,60.69
2023-03-16T07:20:54.759Z,60.43
2023-03-16T07:23:24.891Z,59.82
2023-03-16T07:25:53.293Z,59.82
2023-03-16T07:28:20.456Z,59.60
2023-03-16T07:31:02.524Z,58.21
2023-03-16T07:33:36.244Z,59.29
2023-03-16T07:36:06.030Z,58.80
2023-03-16T07:38:36.962Z,58.66
2023-03-16T07:41:03.985Z,59.65
2023-03-16T07:43:30.909Z,57.76
2023-03-16T07:45:57.743Z,58.17
2023-03-16T07:48:25.128Z,58.43
2023-03-16T07:50:56.109Z,57.72
2023-03-16T07:53:24.170Z,57.59
2023-03-16T07:56:01.400Z,58.48
2023-03-16T07:58:31.578Z,57.33
2023-03-16T08:01:00.016Z,56.75
2023-03-16T08:03:28.708Z,57.11
2023-03-16T08:05:55.599Z,56.93
2023-03-16T08:08:23.191Z,55.91
2023-03-16T08:10:52.705Z,56.47
2023-03-16T08:13:22.449Z,56.12
2023-03-16T08:15:58.363Z,55.45
2023-03-16T08:18:34.789Z,53.74
2023-03-16T08:21:01.442Z,54.99
2023-03-16T08:23:29.397Z,53.81
2023-03-16T08:25:57.678Z,54.91
2023-03-16T08:28:26.084Z,54.80
2023-03-16T08:30:55.580Z,54.55
2023-03-16T08:33:36.041Z,54.97
2023-03-16T08:36:06.178Z,54.97
2023-03-16T08:38:33.637Z,55.89
2023-03-16T08:41:05.055Z,56.21
2023-03-16T08:43:33.712Z,55.53
2023-03-16T08:46:01.950Z,55.50
2023-03-16T08:48:38.263Z,55.10
2023-03-16T08:51:05.896Z,54.79
2023-03-16T08:53:32.510Z,54.64
2023-03-16T08:56:06.991Z,55.67
2023-03-16T08:58:34.955Z,55.38
2023-03-16T09:01:03.850Z,55.26
2023-03-16T09:03:30.900Z,55.41
2023-03-16T09:06:02.655Z,53.51
2023-03-16T09:08:29.905Z,54.95
2023-03-16T09:11:12.724Z,54.14
2023-03-16T09:13:40.339Z,54.78
2023-03-16T09:16:07.796Z,54.31
2023-03-16T09:18:35.392Z,53.88
2023-03-16T09:21:07.542Z,53.11
2023-03-16T09:23:37.483Z,54.51
2023-03-16T09:26:07.506Z,54.37
2023-03-16T09:28:36.060Z,53.72
2023-03-16T09:31:06.143Z,54.53
2023-03-16T09:33:33.902Z,54.11
2023-03-16T09:36:00.666Z,52.77
2023-03-16T09:38:28.239Z,53.46
2023-03-16T09:41:00.570Z,53.83
2023-03-16T09:43:46.126Z,54.42
2023-03-16T09:46:21.866Z,54.92
2023-03-16T09:48:48.686Z,53.31
2023-03-16T09:51:21.702Z,54.76
2023-03-16T09:53:50.463Z,54.67
2023-03-16T09:56:27.374Z,53.07
2023-03-16T09:58:55.068Z,54.34
2023-03-16T10:01:41.389Z,53.31
2023-03-16T10:04:37.597Z,54.07
2023-03-16T10:07:16.411Z,54.23
2023-03-16T10:09:49.682Z,53.36
2023-03-16T10:12:16.390Z,54.29
2023-03-16T10:14:54.916Z,54.68
2023-03-16T10:17:33.207Z,52.80
2023-03-16T10:20:04.982Z,53.30
2023-03-16T10:22:34.849Z,52.86
2023-03-16T10:25:29.475Z,53.57
2023-03-16T10:27:57.335Z,53.40
2023-03-16T10:30:31.128Z,53.82
2023-03-16T10:33:05.472Z,53.89
2023-03-16T10:35:45.788Z,54.35
2023-03-16T10:38:40.280Z,54.50
2023-03-16T10:41:22.338Z,54.44
2023-03-16T10:44:17.050Z,54.46
2023-03-16T10:46:48.657Z,54.74
2023-03-16T10:49:25.832Z,53.89
2023-03-16T10:51:59.523Z,54.16
2023-03-16T10:54:33.530Z,54.02
2023-03-16T10:57:03.316Z,53.70
2023-03-16T10:59:34.522Z,53.47
2023-03-16T11:02:16.681Z,54.30
2023-03-16T11:04:43.570Z,53.94
2023-03-16T11:07:17.793Z,52.24
2023-03-16T11:09:45.381Z,51.88
2023-03-16T11:12:22.656Z,52.47
2023-03-16T11:14:50.043Z,53.74
2023-03-16T11:17:21.209Z,52.86
2023-03-16T11:19:57.689Z,53.68
2023-03-16T11:22:26.018Z,54.41
2023-03-16T11:25:09.403Z,53.97
2023-03-16T11:27:59.466Z,54.58
2023-03-16T11:30:31.032Z,54.75
2023-03-16T11:33:00.507Z,55.34
2023-03-16T11:35:39.920Z,54.08
2023-03-16T11:38:21.772Z,53.76
2023-03-16T11:41:01.570Z,54.28
2023-03-16T11:43:34.348Z,54.08
2023-03-16T11:46:15.813Z,54.20
2023-03-16T11:48:48.454Z,53.61
2023-03-16T11:51:31.159Z,53.73
2023-03-16T11:54:11.298Z,53.84
2023-03-16T11:56:50.542Z,53.52
2023-03-16T12:00:01.204Z,54.03
2023-03-16T12:02:35.900Z,54.32
2023-03-16T12:05:39.760Z,53.18
2023-03-16T12:08:39.059Z,53.82
2023-03-16T12:11:10.568Z,52.44
2023-03-16T12:14:01.404Z,53.96
2023-03-16T12:16:50.264Z,53.02
2023-03-16T12:19:41.869Z,53.81
2023-03-16T12:22:23.946Z,54.00
2023-03-16T12:24:50.653Z,52.93
2023-03-16T12:27:24.931Z,53.92
2023-03-16T12:30:12.973Z,53.10
2023-03-16T12:32:50.389Z,54.68
2023-03-16T12:35:22.026Z,53.26
2023-03-16T12:38:04.450Z,51.85
2023-03-16T12:40:46.467Z,53.69
2023-03-16T12:43:46.482Z,54.31
2023-03-16T12:46:18.639Z,53.19
2023-03-16T12:48:53.885Z,54.16
2023-03-16T12:51:20.534Z,53.51
2023-03-16T12:53:55.335Z,53.90
2023-03-16T12:56:37.445Z,53.53
2023-03-16T12:59:07.250Z,53.59
2023-03-16T13:01:44.415Z,52.91
2023-03-16T13:04:30.344Z,54.29
2023-03-16T13:07:07.705Z,54.05
2023-03-16T13:09:42.128Z,53.70
2023-03-16T13:12:10.468Z,53.98
2023-03-16T13:14:41.023Z,53.29
2023-03-16T13:17:16.875Z,54.53
2023-03-16T13:19:46.695Z,54.71
2023-03-16T13:22:22.431Z,55.10
2023-03-16T13:25:00.438Z,54.04
2023-03-16T13:27:30.726Z,54.27
2023-03-16T13:30:03.526Z,53.86
2023-03-16T13:32:32.661Z,55.57
2023-03-16T13:35:02.315Z,53.33
2023-03-16T13:37:30.154Z,53.67
2023-03-16T13:39:59.883Z,54.03
2023-03-16T13:42:31.532Z,52.25
2023-03-16T13:44:59.534Z,53.48
2023-03-16T13:47:27.733Z,53.38
2023-03-16T13:49:58.103Z,53.83
2023-03-16T13:52:31.204Z,53.17
2023-03-16T13:54:59.848Z,55.38
2023-03-16T13:57:35.646Z,55.20
2023-03-16T14:00:22.631Z,54.81
2023-03-16T14:02:55.025Z,54.53
2023-03-16T14:05:30.928Z,53.45
2023-03-16T14:08:00.589Z,54.42
2023-03-16T14:10:32.239Z,52.75
2023-03-16T14:13:33.388Z,52.48
2023-03-16T14:16:17.618Z,52.92
2023-03-16T14:18:48.288Z,52.74
2023-03-16T14:21:21.809Z,51.20
2023-03-16T14:23:58.126Z,53.95
2023-03-16T14:26:25.337Z,54.56
2023-03-16T14:29:01.350Z,53.71
2023-03-16T14:31:34.214Z,51.85
2023-03-16T14:34:21.424Z,52.73
2023-03-16T14:36:48.343Z,53.46
2023-03-16T14:39:19.843Z,51.25
2023-03-16T14:41:51.310Z,52.98
2023-03-16T14:44:22.653Z,50.49
2023-03-16T14:46:49.664Z,54.37
2023-03-16T14:49:27.937Z,53.41
2023-03-16T14:52:00.519Z,51.85
2023-03-16T14:54:28.237Z,53.09
2023-03-16T14:57:00.219Z,53.36
2023-03-16T14:59:27.034Z,52.46
2023-03-16T15:01:55.225Z,52.00
2023-03-16T15:04:34.476Z,52.99
2023-03-16T15:07:07.047Z,51.91
2023-03-16T15:09:40.028Z,53.45
2023-03-16T15:12:19.833Z,51.54
2023-03-16T15:15:06.657Z,50.14
2023-03-16T15:17:33.724Z,52.70
2023-03-16T15:20:00.377Z,52.96
2023-03-16T15:22:30.778Z,53.04
2023-03-16T15:24:58.392Z,53.52
2023-03-16T15:27:31.556Z,53.64
2023-03-16T15:29:58.794Z,54.30
2023-03-16T15:32:25.670Z,53.16
2023-03-16T15:34:52.541Z,53.37
2023-03-16T15:37:24.393Z,52.08
2023-03-16T15:39:51.521Z,51.84
2023-03-16T15:42:19.383Z,52.37
2023-03-16T15:44:48.616Z,54.00
2023-03-16T15:47:15.427Z,52.85
2023-03-16T15:49:47.815Z,53.41
2023-03-16T15:52:37.329Z,52.91
2023-03-16T15:55:07.858Z,52.17
2023-03-16T15:57:35.511Z,51.93
2023-03-16T16:00:02.472Z,53.13
2023-03-16T16:02:32.456Z,52.15
2023-03-16T16:04:59.530Z,52.42
2023-03-16T16:07:27.302Z,52.42
2023-03-16T16:09:54.004Z,54.27
2023-03-16T16:12:26.924Z,54.30
2023-03-16T16:14:56.251Z,55.40
2023-03-16T16:17:32.766Z,53.73
2023-03-16T16:20:23.423Z,54.74
2023-03-16T16:22:52.009Z,55.01
2023-03-16T16:25:23.931Z,53.01
2023-03-16T16:27:51.645Z,54.89
2023-03-16T16:30:24.577Z,54.86
2023-03-16T16:32:51.514Z,54.61
2023-03-16T16:35:22.929Z,54.41
2023-03-16T16:37:51.201Z,53.96
2023-03-16T16:40:23.938Z,54.24
2023-03-16T16:42:53.153Z,55.29
2023-03-16T16:45:25.418Z,56.27
2023-03-16T16:47:55.618Z,56.79
2023-03-16T16:50:28.113Z,56.84
2023-03-16T16:52:57.398Z,57.41
2023-03-16T16:55:24.819Z,56.90
2023-03-16T16:57:55.101Z,56.39
2023-03-16T17:00:25.012Z,57.17
2023-03-16T17:02:54.001Z,57.94
2023-03-16T17:05:23.782Z,58.36
2023-03-16T17:07:51.212Z,58.89
2023-03-16T17:10:28.054Z,58.79
2023-03-16T17:12:57.097Z,59.78
2023-03-16T17:15:30.970Z,59.96
2023-03-16T17:18:11.047Z,60.57
2023-03-16T17:20:38.996Z,59.51
2023-03-16T17:23:33.110Z,60.46
2023-03-16T17:26:10.875Z,61.00
2023-03-16T17:28:40.473Z,61.34
2023-03-16T17:31:07.802Z,60.80
2023-03-16T17:33:34.711Z,60.53
2023-03-16T17:36:02.689Z,61.21
2023-03-16T17:38:32.790Z,60.24
2023-03-16T17:41:00.437Z,60.95
2023-03-16T17:43:29.220Z,60.70
2023-03-16T17:45:56.191Z,60.82
2023-03-16T17:48:24.215Z,61.74
2023-03-16T17:50:54.276Z,61.55
2023-03-16T17:53:21.926Z,60.38
2023-03-16T17:55:48.922Z,60.71
2023-03-16T17:58:25.742Z,61.63
2023-03-16T18:00:54.249Z,61.76
2023-03-16T18:03:27.545Z,61.58
2023-03-16T18:05:55.383Z,61.02
2023-03-16T18:08:30.154Z,61.33
2023-03-16T18:10:59.486Z,61.86
2023-03-16T18:13:33.445Z,62.78
2023-03-16T18:16:01.618Z,61.48
2023-03-16T18:18:36.531Z,61.93
2023-03-16T18:21:04.456Z,62.55
2023-03-16T18:23:35.797Z,62.81
2023-03-16T18:26:04.044Z,63.02
2023-03-16T18:28:31.373Z,62.29
2023-03-16T18:30:58.832Z,62.54
2023-03-16T18:33:32.630Z,63.19
2023-03-16T18:36:08.013Z,63.15
2023-03-16T18:38:37.707Z,63.90
2023-03-16T18:41:22.680Z,65.66
2023-03-16T18:43:51.043Z,66.72
2023-03-16T18:46:34.322Z,67.53
2023-03-16T18:49:12.918Z,66.25
2023-03-16T18:51:41.001Z,65.82
2023-03-16T18:54:27.815Z,66.81
2023-03-16T18:56:55.248Z,66.34
2023-03-16T18:59:21.956Z,65.79
2023-03-16T19:01:48.868Z,66.99
2023-03-16T19:04:28.004Z,66.63
2023-03-16T19:06:56.052Z,66.32
2023-03-16T19:09:31.140Z,67.04
2023-03-16T19:11:58.638Z,67.37
2023-03-16T19:14:34.981Z,66.88
2023-03-16T19:17:01.800Z,66.42
2023-03-16T19:19:28.428Z,67.27
2023-03-16T19:21:57.956Z,66.95
2023-03-16T19:24:28.046Z,67.38
2023-03-16T19:26:56.006Z,67.89
2023-03-16T19:29:29.360Z,67.69
2023-03-16T19:31:56.856Z,68.56
2023-03-16T19:34:23.484Z,68.56
2023-03-16T19:36:50.338Z,70.30
2023-03-16T19:39:17.286Z,70.01
2023-03-16T19:41:47.818Z,70.89
2023-03-16T19:44:20.558Z,71.44
2023-03-16T19:46:47.698Z,70.16
2023-03-16T19:49:19.716Z,70.08
2023-03-16T19:51:51.459Z,69.67
2023-03-16T19:54:22.664Z,70.16
2023-03-16T19:56:50.556Z,69.87
2023-03-16T19:59:17.659Z,70.39
2023-03-16T20:01:44.896Z,70.54
2023-03-16T20:04:20.168Z,69.70
2023-03-16T20:06:49.675Z,71.05
2023-03-16T20:09:17.396Z,69.77
2023-03-16T20:11:44.677Z,72.41
2023-03-16T20:14:27.130Z,71.74
2023-03-16T20:16:54.237Z,71.07
2023-03-16T20:19:22.293Z,70.87
2023-03-16T20:21:49.439Z,71.43
2023-03-16T20:24:20.655Z,71.95
2023-03-16T20:26:51.224Z,71.92
2023-03-16T20:29:32.389Z,71.28
2023-03-16T20:32:00.551Z,72.16
2023-03-16T20:34:29.947Z,71.94
2023-03-16T20:36:57.812Z,73.10
2023-03-16T20:39:24.586Z,73.48
2023-03-16T20:41:53.043Z,73.97
2023-03-16T20:44:21.845Z,72.52
2023-03-16T20:46:48.549Z,72.32
2023-03-16T20:49:29.057Z,72.85
2023-03-16T20:51:56.545Z,73.69
2023-03-16T20:54:23.124Z,72.71
2023-03-16T20:56:49.954Z,72.34
2023-03-16T20:59:20.249Z,72.80
2023-03-16T21:01:47.956Z,72.54
2023-03-16T21:04:24.357Z,72.45
2023-03-16T21:06:51.386Z,73.40
2023-03-16T21:09:20.033Z,72.24
2023-03-16T21:11:48.149Z,73.42
2023-03-16T21:14:18.149Z,73.83
2023-03-16T21:16:44.779Z,73.42
2023-03-16T21:19:21.832Z,74.00
2023-03-16T21:21:48.851Z,72.98
2023-03-16T21:24:16.072Z,73.29
2023-03-16T21:26:44.856Z,72.57
2023-03-16T21:29:16.999Z,72.53
2023-03-16T21:31:43.786Z,72.62
2023-03-16T21:34:23.827Z,71.88
2023-03-16T21:36:50.963Z,72.03
2023-03-16T21:39:20.390Z,72.10
2023-03-16T21:41:49.821Z,71.65
2023-03-16T21:44:16.737Z,73.65
2023-03-16T21:46:43.545Z,72.61
2023-03-16T21:49:12.123Z,72.30
2023-03-16T21:51:38.844Z,72.56
2023-03-16T21:54:07.896Z,72.34
2023-03-16T21:56:36.029Z,73.24
2023-03-16T21:59:02.639Z,72.42
2023-03-16T22:01:31.676Z,72.24
2023-03-16T22:04:24.474Z,72.63
2023-03-16T22:06:51.367Z,73.19
2023-03-16T22:09:30.545Z,72.69
2023-03-16T22:11:57.235Z,72.17
2023-03-16T22:14:23.847Z,73.12
2023-03-16T22:16:50.469Z,72.13
2023-03-16T22:19:18.088Z,72.77
2023-03-16T22:21:46.570Z,74.34
2023-03-16T22:24:19.371Z,73.97
2023-03-16T22:26:47.577Z,73.40
2023-03-16T22:29:25.415Z,75.55
2023-03-16T22:32:02.909Z,75.26
2023-03-16T22:34:43.048Z,73.70
2023-03-16T22:37:13.060Z,73.84
2023-03-16T22:39:40.457Z,73.22
2023-03-16T22:42:28.441Z,73.72
2023-03-16T22:44:55.859Z,73.69
2023-03-16T22:47:26.124Z,74.96
2023-03-16T22:49:53.796Z,74.61
2023-03-16T22:52:25.571Z,74.96
2023-03-16T22:54:52.791Z,74.47
2023-03-16T22:57:19.771Z,74.21
2023-03-16T22:59:48.257Z,74.72
2023-03-16T23:02:16.112Z,74.96
2023-03-16T23:04:42.812Z,74.39
2023-03-16T23:07:13.369Z,75.77
2023-03-16T23:09:40.627Z,75.26
2023-03-16T23:12:20.989Z,74.82
2023-03-16T23:14:47.664Z,75.17
2023-03-16T23:17:20.266Z,75.14
2023-03-16T23:19:48.214Z,75.59
2023-03-16T23:22:15.685Z,74.44
2023-03-16T23:24:42.658Z,75.83
2023-03-16T23:27:22.275Z,74.92
2023-03-16T23:29:49.034Z,75.28
2023-03-16T23:32:18.797Z,76.47
2023-03-16T23:34:45.915Z,76.29
2023-03-16T23:37:12.731Z,76.14
2023-03-16T23:39:39.927Z,75.75
2023-03-16T23:42:07.234Z,76.41
2023-03-16T23:44:34.048Z,76.22
2023-03-16T23:47:00.736Z,75.59
2023-03-16T23:49:33.261Z,75.37
2023-03-16T23:52:01.757Z,74.90
2023-03-16T23:54:31.577Z,76.08
2023-03-16T23:56:58.378Z,75.83
2023-03-16T23:59:27.373Z,75.94
